RK8T weather

N 305 Helipad
Port Hamilton, Jeonranamdo, South Korea

Public forecast

Using degrees Celsius for public forecast. Weather courtesy of forecast.io.

METAR (pilot weather report)

Closest report is Jeju International Airport, 51.1 nm (94.6 km) SW. Retrieved 2019/07/21 10:00 UTC (22 minutes ago):

RKPC 211000Z 07006KT 9999 FEW030 SCT200 25/24 Q1007 NOSIG

TAF (pilot weather forecast)

Closest forecast is Jeju International Airport, 51.1 nm (94.6 km) SW. Retrieved 2019/07/21 06:00 UTC (4 hours ago):

TAF RKPC 210500Z 2106/2212 29010KT 9999 FEW030 SCT180 TN24/2121Z TX29/2205Z BECMG 2110/2111 07007KT BECMG 2113/2114 4200 BR FEW010 BKN030 OVC100 BECMG 2121/2122 6000 NSW TEMPO 2200/2203 -SHRA BECMG 2210/2211 01007KT